Zeus — V2OR — position and weather

sailwx.info

Track history (hours):
 
Tides and Currents Weather Stations Pressure Air Temp Water Temp Dewpoint Dewpoint Depression Visibility Wind Speed Wind Dir Waves Ship Positions

Zeus

Last reported at 2016-Feb-09 09:32 UTC. Time now 2016-Feb-10 02:38 UTC.
Position N 58°49' E 004°38'.

Length 89 m; draft 4.2 m.

Type: Ship. MMSI: 304011025.

Date/timePositionNaut miles runAvg speedWind from/ knotsBaromVisibWave heightAir tempDewpointWater temp
2016-Feb-09 09:32N 58°49' E 004°38'17 8.5
2016-Feb-09 07:32N 59°06' E 004°38'  
2016-Jan-31 07:10N 59°54' E 005°32'610.6
2016-Jan-31 06:33N 59°47' E 005°33'1110.9
2016-Jan-31 05:32N 59°39' E 005°19'24 8.1
2016-Jan-31 02:33N 59°15' E 005°23'9 8.5
2016-Jan-31 01:33N 59°10' E 005°36'9 9.1
2016-Jan-31 00:33N 59°05' E 005°51'10 9.9
2016-Jan-30 23:33N 58°55' E 005°46'4 3.9
2016-Jan-30 22:33N 58°51' E 005°45'0 0.0
2016-Jan-30 21:33N 58°51' E 005°45'0 0.0
2016-Jan-30 20:33N 58°51' E 005°45'0 0.0
2016-Jan-30 19:32N 58°51' E 005°45'0 0.0
2016-Jan-30 18:33N 58°51' E 005°45'0 0.0
2016-Jan-30 17:31N 58°51' E 005°45'0 0.0
2016-Jan-30 16:31N 58°51' E 005°45'0 0.0
2016-Jan-30 15:31N 58°51' E 005°45'0 0.0
2016-Jan-30 14:29N 58°51' E 005°45'0 0.0
2016-Jan-30 13:32N 58°51' E 005°45'0 0.0
2016-Jan-30 12:32N 58°51' E 005°45'0 0.0
2016-Jan-30 11:33N 58°51' E 005°45'0 0.0
2016-Jan-30 10:32N 58°51' E 005°45'  
Track history (hours):
 
Tides and Currents Weather Stations Pressure Air Temp Water Temp Dewpoint Dewpoint Depression Visibility Wind Speed Wind Dir Waves Ship Positions

Zeus

Last reported at 2016-Feb-09 09:32 UTC. Time now 2016-Feb-10 02:38 UTC.
Position N 58°49' E 004°38'.

Length 89 m; draft 4.2 m.

Type: Ship. MMSI: 304011025.

Date/timePositionNaut miles runAvg speedWind from/ knotsBaromVisibWave heightAir tempDewpointWater temp
2016-Feb-09 09:32N 58°49' E 004°38'17 8.5
2016-Feb-09 07:32N 59°06' E 004°38'  
2016-Jan-31 07:10N 59°54' E 005°32'610.6
2016-Jan-31 06:33N 59°47' E 005°33'1110.9
2016-Jan-31 05:32N 59°39' E 005°19'24 8.1
2016-Jan-31 02:33N 59°15' E 005°23'9 8.5
2016-Jan-31 01:33N 59°10' E 005°36'9 9.1
2016-Jan-31 00:33N 59°05' E 005°51'10 9.9
2016-Jan-30 23:33N 58°55' E 005°46'4 3.9
2016-Jan-30 22:33N 58°51' E 005°45'0 0.0
2016-Jan-30 21:33N 58°51' E 005°45'0 0.0
2016-Jan-30 20:33N 58°51' E 005°45'0 0.0
2016-Jan-30 19:32N 58°51' E 005°45'0 0.0
2016-Jan-30 18:33N 58°51' E 005°45'0 0.0
2016-Jan-30 17:31N 58°51' E 005°45'0 0.0
2016-Jan-30 16:31N 58°51' E 005°45'0 0.0
2016-Jan-30 15:31N 58°51' E 005°45'0 0.0
2016-Jan-30 14:29N 58°51' E 005°45'0 0.0
2016-Jan-30 13:32N 58°51' E 005°45'0 0.0
2016-Jan-30 12:32N 58°51' E 005°45'0 0.0
2016-Jan-30 11:33N 58°51' E 005°45'0 0.0
2016-Jan-30 10:32N 58°51' E 005°45'  

Dump ship's entire track history